Time;durP1;ratioP1;P1;durP2;ratioP2;P2;SDS_P1;SDS_P2;PMS_P1;PMS_P2;Temp;Humidity;BMP_temperature;BMP_pressure;BME280_temperature;BME280_humidity;BME280_pressure;Samples;Min_cycle;Max_cycle;Signal;HPM_P1;HPM_P2
2022/08/28 00:01:07;;;;;;;6.37;4.30;;;;;;;;;;5054452;28;20216;-72
2022/08/28 00:03:33;;;;;;;4.40;3.73;;;;;;;;;;5065256;28;20481;-71
2022/08/28 00:05:59;;;;;;;6.27;4.27;;;;;;;;;;5066237;28;20181;-71
2022/08/28 00:08:26;;;;;;;4.40;4.00;;;;;;;;;;5060009;28;20185;-73
2022/08/28 00:10:53;;;;;;;4.43;4.03;;;;;;;;;;5050910;28;20653;-71
2022/08/28 00:13:20;;;;;;;4.47;4.07;;;;;;;;;;5062795;28;20223;-72
2022/08/28 00:15:48;;;;;;;4.73;4.23;;;;;;;;;;5063881;28;20193;-71
2022/08/28 00:18:14;;;;;;;6.13;4.30;;;;;;;;;;5065139;28;20185;-73
2022/08/28 00:20:40;;;;;;;4.97;3.90;;;;;;;;;;5059542;28;20189;-72
2022/08/28 00:23:06;;;;;;;4.97;4.13;;;;;;;;;;5055520;28;20292;-72
2022/08/28 00:25:33;;;;;;;5.37;4.03;;;;;;;;;;5060527;28;20177;-71
2022/08/28 00:28:01;;;;;;;5.90;4.60;;;;;;;;;;5061693;28;20185;-71
2022/08/28 00:30:31;;;;;;;5.07;4.03;;;;;;;;;;5064810;28;20208;-71
2022/08/28 00:32:59;;;;;;;5.67;4.20;;;;;;;;;;5059486;28;20186;-71
2022/08/28 00:35:25;;;;;;;6.33;4.40;;;;;;;;;;5038936;28;20614;-71
2022/08/28 00:37:53;;;;;;;4.93;4.43;;;;;;;;;;5062560;28;20181;-71
2022/08/28 00:40:20;;;;;;;4.40;4.00;;;;;;;;;;5052579;28;20264;-71
2022/08/28 00:42:47;;;;;;;5.90;3.87;;;;;;;;;;5063884;28;20197;-72
2022/08/28 00:45:16;;;;;;;5.67;4.27;;;;;;;;;;5061786;28;20185;-73
2022/08/28 00:47:42;;;;;;;4.73;4.33;;;;;;;;;;5060270;28;20260;-72
2022/08/28 00:50:10;;;;;;;5.33;4.13;;;;;;;;;;5059292;28;20446;-71
2022/08/28 00:52:37;;;;;;;7.03;4.20;;;;;;;;;;5059775;28;20185;-72
2022/08/28 00:55:10;;;;;;;5.67;4.30;;;;;;;;;;5072166;28;20668;-71
2022/08/28 00:57:48;;;;;;;4.63;4.10;;;;;;;;;;5057937;28;20637;-72
2022/08/28 01:00:18;;;;;;;5.30;3.90;;;;;;;;;;5053206;28;20505;-71
2022/08/28 01:02:44;;;;;;;5.47;3.93;;;;;;;;;;5060713;28;20201;-71
2022/08/28 01:05:11;;;;;;;5.37;4.40;;;;;;;;;;5061125;28;20181;-71
2022/08/28 01:07:37;;;;;;;5.87;4.33;;;;;;;;;;5065795;28;20557;-71
2022/08/28 01:10:05;;;;;;;5.17;4.00;;;;;;;;;;5061610;28;20392;-71
2022/08/28 01:12:32;;;;;;;5.50;4.33;;;;;;;;;;5053673;28;20229;-71
2022/08/28 01:15:00;;;;;;;5.40;4.10;;;;;;;;;;5060728;28;20521;-71
2022/08/28 01:17:30;;;;;;;4.97;4.47;;;;;;;;;;5058908;28;20185;-71
2022/08/28 01:19:58;;;;;;;5.73;4.20;;;;;;;;;;5057095;28;20189;-72
2022/08/28 01:22:36;;;;;;;4.87;4.27;;;;;;;;;;5040051;28;20230;-72
2022/08/28 01:25:03;;;;;;;4.93;4.30;;;;;;;;;;5048788;28;20718;-72
2022/08/28 01:27:29;;;;;;;6.27;5.27;;;;;;;;;;5048104;28;20719;-71
2022/08/28 01:29:56;;;;;;;4.70;4.30;;;;;;;;;;5065772;28;20550;-71
2022/08/28 01:32:27;;;;;;;5.97;4.60;;;;;;;;;;5062252;28;20255;-72
2022/08/28 01:34:53;;;;;;;4.67;4.10;;;;;;;;;;5060495;28;20206;-71
2022/08/28 01:37:19;;;;;;;6.53;4.47;;;;;;;;;;5071977;28;20197;-72
2022/08/28 01:39:45;;;;;;;6.47;4.23;;;;;;;;;;5063767;28;20173;-71
2022/08/28 01:42:12;;;;;;;4.60;4.07;;;;;;;;;;5060821;28;20216;-71
2022/08/28 01:44:39;;;;;;;5.53;4.30;;;;;;;;;;5050046;28;20819;-72
2022/08/28 01:47:05;;;;;;;4.97;4.40;;;;;;;;;;5053456;28;20189;-72
2022/08/28 01:49:31;;;;;;;4.43;3.87;;;;;;;;;;5049678;28;20208;-71
2022/08/28 01:51:57;;;;;;;5.10;4.10;;;;;;;;;;5058039;28;20254;-71
2022/08/28 01:54:24;;;;;;;6.50;4.53;;;;;;;;;;5065696;28;20232;-71
2022/08/28 01:56:51;;;;;;;5.07;4.57;;;;;;;;;;5064123;28;20239;-72
2022/08/28 01:59:17;;;;;;;5.10;4.33;;;;;;;;;;5058123;28;20208;-73
2022/08/28 02:01:43;;;;;;;4.90;4.13;;;;;;;;;;5057598;28;20543;-72
2022/08/28 02:04:10;;;;;;;4.73;3.93;;;;;;;;;;5063471;28;20217;-72
2022/08/28 02:06:36;;;;;;;4.37;3.97;;;;;;;;;;5066724;28;20173;-71
2022/08/28 02:09:04;;;;;;;4.70;4.20;;;;;;;;;;5060344;28;20271;-71
2022/08/28 02:11:31;;;;;;;6.27;4.13;;;;;;;;;;5068053;28;20672;-71
2022/08/28 02:13:58;;;;;;;5.57;4.23;;;;;;;;;;5066730;28;20608;-71
2022/08/28 02:16:24;;;;;;;6.47;4.43;;;;;;;;;;5068641;28;20419;-71
2022/08/28 02:18:51;;;;;;;4.93;4.10;;;;;;;;;;5057940;28;20205;-71
2022/08/28 02:21:17;;;;;;;4.87;4.30;;;;;;;;;;5063177;28;20285;-71
2022/08/28 02:23:44;;;;;;;3.97;3.67;;;;;;;;;;5061352;28;20193;-72
2022/08/28 02:26:10;;;;;;;5.20;3.90;;;;;;;;;;5056452;28;20260;-72
2022/08/28 02:28:36;;;;;;;5.80;3.90;;;;;;;;;;5065983;28;20193;-72
2022/08/28 02:31:04;;;;;;;4.03;3.63;;;;;;;;;;5060840;28;20178;-72
2022/08/28 02:33:30;;;;;;;5.20;3.97;;;;;;;;;;5059340;28;20197;-72
2022/08/28 02:35:56;;;;;;;5.90;3.80;;;;;;;;;;5053717;28;20177;-73
2022/08/28 02:38:23;;;;;;;4.77;3.93;;;;;;;;;;5061037;28;20280;-72
2022/08/28 02:40:49;;;;;;;4.73;3.83;;;;;;;;;;5064225;28;20321;-72
2022/08/28 02:43:16;;;;;;;5.97;3.87;;;;;;;;;;5058710;28;20243;-71
2022/08/28 02:45:42;;;;;;;4.73;3.87;;;;;;;;;;5055026;28;20237;-71
2022/08/28 02:48:08;;;;;;;5.40;4.17;;;;;;;;;;5060273;28;20641;-71
2022/08/28 02:50:34;;;;;;;3.97;3.57;;;;;;;;;;5060288;28;20641;-72
2022/08/28 02:53:00;;;;;;;4.33;3.80;;;;;;;;;;5060344;28;20205;-71
2022/08/28 02:55:26;;;;;;;5.33;3.80;;;;;;;;;;5062374;28;20173;-71
2022/08/28 02:57:53;;;;;;;4.33;3.80;;;;;;;;;;5062647;28;20186;-71
2022/08/28 03:00:21;;;;;;;3.80;3.50;;;;;;;;;;5058912;28;20234;-73
2022/08/28 03:02:47;;;;;;;3.97;3.57;;;;;;;;;;5063258;28;20844;-72
2022/08/28 03:05:15;;;;;;;4.70;3.93;;;;;;;;;;5057231;28;20551;-72
2022/08/28 03:07:42;;;;;;;4.00;3.60;;;;;;;;;;5063074;28;20208;-72
2022/08/28 03:10:09;;;;;;;4.07;3.60;;;;;;;;;;5058900;28;20181;-72
2022/08/28 03:12:37;;;;;;;3.87;3.50;;;;;;;;;;5061541;28;20622;-72
2022/08/28 03:15:04;;;;;;;4.73;4.07;;;;;;;;;;5061277;28;20200;-71
2022/08/28 03:17:31;;;;;;;5.13;4.00;;;;;;;;;;5066097;28;20181;-71
2022/08/28 03:19:57;;;;;;;5.70;4.00;;;;;;;;;;5067044;28;20262;-71
2022/08/28 03:25:12;;;;;;;4.53;4.00;;;;;;;;;;5062848;28;20593;-72
2022/08/28 03:27:38;;;;;;;4.80;4.00;;;;;;;;;;5061209;28;20280;-71
2022/08/28 03:30:06;;;;;;;5.97;3.93;;;;;;;;;;5055314;28;20195;-71
2022/08/28 03:32:32;;;;;;;5.60;3.90;;;;;;;;;;5056592;28;20649;-71
2022/08/28 03:34:59;;;;;;;3.97;3.60;;;;;;;;;;5063874;28;20573;-71
2022/08/28 03:37:25;;;;;;;5.77;3.70;;;;;;;;;;5062078;28;20184;-71
2022/08/28 03:39:51;;;;;;;4.80;3.90;;;;;;;;;;5063163;28;20315;-72
2022/08/28 03:42:17;;;;;;;5.70;3.97;;;;;;;;;;5070902;28;20257;-72
2022/08/28 03:44:44;;;;;;;5.13;3.77;;;;;;;;;;5062321;28;20197;-72
2022/08/28 03:47:11;;;;;;;3.90;3.60;;;;;;;;;;5060336;28;20173;-72
2022/08/28 03:49:37;;;;;;;4.17;3.80;;;;;;;;;;5065893;28;20177;-72
2022/08/28 03:52:03;;;;;;;4.20;3.80;;;;;;;;;;5062059;28;20523;-72
2022/08/28 03:54:30;;;;;;;5.23;4.00;;;;;;;;;;5059566;28;20207;-72
2022/08/28 03:56:56;;;;;;;6.40;4.10;;;;;;;;;;5064412;28;20319;-71
2022/08/28 03:59:22;;;;;;;3.77;3.47;;;;;;;;;;5063482;28;20178;-71
2022/08/28 04:01:49;;;;;;;6.63;3.90;;;;;;;;;;5054504;28;20546;-71
2022/08/28 04:04:15;;;;;;;5.50;3.60;;;;;;;;;;5056525;28;20201;-71
2022/08/28 04:06:41;;;;;;;5.43;3.90;;;;;;;;;;5061029;28;20650;-71
2022/08/28 04:09:07;;;;;;;4.20;3.77;;;;;;;;;;5060304;28;20463;-71
2022/08/28 04:11:37;;;;;;;5.80;3.60;;;;;;;;;;5063989;28;20250;-72
2022/08/28 04:14:03;;;;;;;5.27;3.83;;;;;;;;;;5052735;28;20249;-71
2022/08/28 04:16:30;;;;;;;5.93;3.57;;;;;;;;;;5059127;28;20177;-72
2022/08/28 04:18:57;;;;;;;4.27;3.70;;;;;;;;;;5063778;28;20273;-71
2022/08/28 04:21:24;;;;;;;5.73;4.00;;;;;;;;;;5062273;28;20212;-71
2022/08/28 04:23:51;;;;;;;7.70;4.20;;;;;;;;;;5061512;28;20677;-72
2022/08/28 04:26:19;;;;;;;4.83;3.70;;;;;;;;;;5057441;28;20652;-71
2022/08/28 04:28:45;;;;;;;3.97;3.57;;;;;;;;;;5066154;28;20178;-71
2022/08/28 04:31:12;;;;;;;5.33;3.63;;;;;;;;;;5064120;28;20217;-72
2022/08/28 04:33:38;;;;;;;4.80;3.97;;;;;;;;;;5056636;28;20197;-72
2022/08/28 04:36:06;;;;;;;4.50;3.73;;;;;;;;;;5051105;28;20449;-72
2022/08/28 04:38:32;;;;;;;3.87;3.50;;;;;;;;;;5052825;28;20580;-71
2022/08/28 04:40:59;;;;;;;4.93;3.23;;;;;;;;;;5059571;28;20181;-72
2022/08/28 04:43:25;;;;;;;4.43;3.63;;;;;;;;;;5057828;28;20197;-71
2022/08/28 04:45:51;;;;;;;3.77;3.40;;;;;;;;;;5065617;28;20192;-71
2022/08/28 04:48:18;;;;;;;3.60;3.20;;;;;;;;;;5057616;28;20185;-72
2022/08/28 04:50:46;;;;;;;3.50;3.20;;;;;;;;;;5064459;28;20231;-71
2022/08/28 04:53:14;;;;;;;3.93;3.20;;;;;;;;;;5049863;28;20201;-72
2022/08/28 04:55:41;;;;;;;4.63;3.33;;;;;;;;;;5053677;28;20196;-72
2022/08/28 04:58:07;;;;;;;5.47;3.67;;;;;;;;;;5042792;28;20227;-73
2022/08/28 05:00:33;;;;;;;4.63;3.73;;;;;;;;;;5051145;28;20189;-72
2022/08/28 05:03:00;;;;;;;4.13;3.73;;;;;;;;;;5061285;28;20197;-72
2022/08/28 05:05:26;;;;;;;4.03;3.60;;;;;;;;;;5062034;28;20188;-72
2022/08/28 05:07:52;;;;;;;6.03;3.67;;;;;;;;;;5055561;28;21801;-72
2022/08/28 05:10:18;;;;;;;4.50;3.70;;;;;;;;;;5060511;28;20601;-72
2022/08/28 05:12:44;;;;;;;5.40;3.50;;;;;;;;;;5061949;28;20661;-71
2022/08/28 05:15:11;;;;;;;5.43;3.97;;;;;;;;;;5065796;28;20212;-71
2022/08/28 05:17:37;;;;;;;4.50;3.40;;;;;;;;;;5056011;28;20927;-71
2022/08/28 05:20:04;;;;;;;5.27;3.60;;;;;;;;;;5060698;28;20228;-71
2022/08/28 05:22:31;;;;;;;6.73;3.80;;;;;;;;;;5056016;28;20235;-71
2022/08/28 05:24:59;;;;;;;4.80;3.40;;;;;;;;;;5057374;28;20205;-72
2022/08/28 05:27:25;;;;;;;4.47;3.30;;;;;;;;;;5059963;28;20185;-72
2022/08/28 05:29:52;;;;;;;4.80;3.70;;;;;;;;;;5061541;28;20243;-73
2022/08/28 05:32:19;;;;;;;3.77;3.30;;;;;;;;;;5059322;28;20257;-72
2022/08/28 05:34:45;;;;;;;5.67;4.00;;;;;;;;;;5061861;28;20206;-73
2022/08/28 05:37:11;;;;;;;3.93;3.50;;;;;;;;;;5054183;28;20210;-71
2022/08/28 05:39:37;;;;;;;4.53;3.37;;;;;;;;;;5063979;28;20234;-72
2022/08/28 05:42:04;;;;;;;5.47;3.60;;;;;;;;;;5066625;28;20688;-71
2022/08/28 05:44:30;;;;;;;4.87;3.27;;;;;;;;;;5067471;28;20224;-72
2022/08/28 05:46:56;;;;;;;6.37;3.43;;;;;;;;;;5067319;28;20352;-72
2022/08/28 05:49:23;;;;;;;4.83;3.33;;;;;;;;;;5064099;28;20181;-72
2022/08/28 05:51:49;;;;;;;5.20;3.03;;;;;;;;;;5065175;28;20265;-73
2022/08/28 05:54:16;;;;;;;3.60;3.20;;;;;;;;;;5068236;28;20208;-72
2022/08/28 05:56:43;;;;;;;4.37;3.10;;;;;;;;;;5045660;28;20640;-72
2022/08/28 05:59:09;;;;;;;4.80;3.40;;;;;;;;;;5067131;28;20177;-73
2022/08/28 06:01:39;;;;;;;4.00;3.60;;;;;;;;;;5052399;28;20307;-73
2022/08/28 06:04:25;;;;;;;6.83;3.30;;;;;;;;;;5064256;28;20283;-73
2022/08/28 06:06:52;;;;;;;3.40;3.10;;;;;;;;;;5077331;28;20288;-72
2022/08/28 06:09:19;;;;;;;4.13;3.50;;;;;;;;;;5063576;28;20181;-72
2022/08/28 06:11:46;;;;;;;5.13;3.67;;;;;;;;;;5064746;28;20564;-73
2022/08/28 06:14:15;;;;;;;4.43;3.40;;;;;;;;;;5061656;28;20217;-75
2022/08/28 06:16:42;;;;;;;5.63;3.60;;;;;;;;;;5077439;28;20185;-74
2022/08/28 06:19:09;;;;;;;6.73;3.60;;;;;;;;;;5061859;28;20189;-73
2022/08/28 06:21:37;;;;;;;4.53;3.70;;;;;;;;;;5081797;28;20192;-81
2022/08/28 06:24:03;;;;;;;3.93;3.13;;;;;;;;;;5065400;28;20194;-77
2022/08/28 06:26:29;;;;;;;4.13;3.23;;;;;;;;;;5068762;28;20177;-77
2022/08/28 06:29:00;;;;;;;4.13;3.30;;;;;;;;;;5070706;28;20216;-76
2022/08/28 06:31:26;;;;;;;4.17;3.20;;;;;;;;;;5080991;28;20190;-77
2022/08/28 06:33:53;;;;;;;4.67;3.40;;;;;;;;;;5071770;28;20212;-77
2022/08/28 06:36:19;;;;;;;3.83;3.03;;;;;;;;;;5065441;28;20191;-77
2022/08/28 06:38:45;;;;;;;4.87;3.27;;;;;;;;;;5069599;28;20446;-77
2022/08/28 06:41:14;;;;;;;5.87;3.70;;;;;;;;;;5068183;28;20656;-76
2022/08/28 06:43:40;;;;;;;6.27;3.50;;;;;;;;;;5063629;28;20194;-77
2022/08/28 06:46:06;;;;;;;7.33;3.70;;;;;;;;;;5058623;28;20260;-73
2022/08/28 06:48:32;;;;;;;5.63;3.70;;;;;;;;;;5063411;28;20166;-78
2022/08/28 06:50:59;;;;;;;5.80;3.50;;;;;;;;;;5066868;28;20711;-74
2022/08/28 06:53:29;;;;;;;5.43;3.83;;;;;;;;;;5058760;28;20201;-76
2022/08/28 06:55:57;;;;;;;5.63;3.33;;;;;;;;;;5060660;28;20641;-74
2022/08/28 06:58:24;;;;;;;4.77;3.30;;;;;;;;;;5064744;28;20181;-74
2022/08/28 07:00:50;;;;;;;6.47;3.43;;;;;;;;;;5051117;28;20181;-74
2022/08/28 07:03:16;;;;;;;5.10;3.60;;;;;;;;;;5063661;28;20212;-75
2022/08/28 07:05:42;;;;;;;5.57;3.60;;;;;;;;;;5062199;28;20185;-75
2022/08/28 07:08:08;;;;;;;4.13;3.20;;;;;;;;;;5047022;28;20189;-73
2022/08/28 07:10:34;;;;;;;4.77;3.17;;;;;;;;;;5066430;28;20613;-76
2022/08/28 07:13:02;;;;;;;4.37;3.23;;;;;;;;;;5064152;28;20193;-74
2022/08/28 07:15:28;;;;;;;4.67;3.20;;;;;;;;;;5064807;28;20185;-74
2022/08/28 07:17:54;;;;;;;4.03;2.80;;;;;;;;;;5063460;28;20525;-74
2022/08/28 07:20:20;;;;;;;5.80;3.47;;;;;;;;;;5068421;28;20273;-74
2022/08/28 07:22:47;;;;;;;5.33;3.57;;;;;;;;;;5065029;28;20201;-74
2022/08/28 07:25:14;;;;;;;3.77;3.10;;;;;;;;;;5066200;28;20189;-74
2022/08/28 07:27:40;;;;;;;6.57;3.43;;;;;;;;;;5065650;28;20752;-73
2022/08/28 07:30:07;;;;;;;6.93;3.30;;;;;;;;;;5066444;28;20177;-74
2022/08/28 07:32:33;;;;;;;5.70;3.20;;;;;;;;;;5058782;28;20537;-74
2022/08/28 07:35:00;;;;;;;5.53;3.17;;;;;;;;;;5058816;28;20220;-75
2022/08/28 07:37:26;;;;;;;7.43;3.43;;;;;;;;;;5066465;28;20217;-76
2022/08/28 07:39:52;;;;;;;5.33;3.23;;;;;;;;;;5062142;28;20662;-75
2022/08/28 07:45:04;;;;;;;4.10;3.30;;;;;;;;;;5061752;28;20208;-75
2022/08/28 07:47:31;;;;;;;4.60;3.30;;;;;;;;;;5061637;28;20189;-74
2022/08/28 07:49:59;;;;;;;4.50;3.43;;;;;;;;;;5067706;28;20306;-74
2022/08/28 07:52:28;;;;;;;6.43;3.60;;;;;;;;;;5046632;28;20185;-74
2022/08/28 07:54:55;;;;;;;8.20;3.70;;;;;;;;;;5067827;28;20542;-74
2022/08/28 07:57:21;;;;;;;6.43;3.80;;;;;;;;;;5064619;28;20193;-75
2022/08/28 07:59:48;;;;;;;5.73;3.57;;;;;;;;;;5067414;28;20177;-75
2022/08/28 08:02:15;;;;;;;5.57;3.60;;;;;;;;;;5058115;28;20649;-73
2022/08/28 08:04:41;;;;;;;5.93;3.50;;;;;;;;;;5065301;28;20201;-76
2022/08/28 08:07:08;;;;;;;5.80;3.50;;;;;;;;;;5061196;28;20185;-74
2022/08/28 08:09:42;;;;;;;4.83;3.40;;;;;;;;;;5060228;28;20633;-73
2022/08/28 08:12:08;;;;;;;4.07;3.67;;;;;;;;;;5059266;28;20185;-73
2022/08/28 08:14:35;;;;;;;3.63;3.23;;;;;;;;;;5066150;28;20672;-73
2022/08/28 08:17:03;;;;;;;4.83;3.03;;;;;;;;;;5060494;28;20193;-74
2022/08/28 08:19:29;;;;;;;7.50;3.30;;;;;;;;;;5064120;28;20177;-73
2022/08/28 08:21:55;;;;;;;6.40;3.30;;;;;;;;;;5060906;28;20272;-73
2022/08/28 08:24:24;;;;;;;4.57;3.20;;;;;;;;;;5069525;28;20707;-74
2022/08/28 08:26:51;;;;;;;3.53;3.00;;;;;;;;;;5061754;28;20657;-73
2022/08/28 08:29:17;;;;;;;4.87;3.50;;;;;;;;;;5064537;28;20177;-73
2022/08/28 08:31:43;;;;;;;6.17;3.43;;;;;;;;;;5061489;28;20189;-73
2022/08/28 08:34:09;;;;;;;5.20;3.00;;;;;;;;;;5061928;28;20546;-73
2022/08/28 08:36:37;;;;;;;4.10;3.00;;;;;;;;;;5061626;28;20198;-73
2022/08/28 08:39:04;;;;;;;4.27;2.90;;;;;;;;;;5064986;28;20942;-73
2022/08/28 08:41:32;;;;;;;5.53;3.20;;;;;;;;;;5061135;28;20242;-73
2022/08/28 08:43:59;;;;;;;5.53;3.30;;;;;;;;;;5061299;28;20433;-77
2022/08/28 08:46:28;;;;;;;4.57;3.30;;;;;;;;;;5059867;28;20181;-75
2022/08/28 08:48:55;;;;;;;3.97;3.43;;;;;;;;;;5062244;28;20438;-76
2022/08/28 08:51:28;;;;;;;4.60;3.50;;;;;;;;;;5063540;28;20189;-73
2022/08/28 08:54:00;;;;;;;6.33;3.30;;;;;;;;;;5067584;28;20205;-76
2022/08/28 08:56:26;;;;;;;6.17;3.83;;;;;;;;;;5060727;28;20189;-76
2022/08/28 08:58:54;;;;;;;6.23;3.43;;;;;;;;;;5066081;28;20180;-73
2022/08/28 09:01:26;;;;;;;6.33;3.70;;;;;;;;;;5060291;28;20604;-76
2022/08/28 09:03:58;;;;;;;5.77;3.60;;;;;;;;;;5065520;28;20207;-73
2022/08/28 09:06:40;;;;;;;5.47;3.60;;;;;;;;;;5071164;28;20192;-74
2022/08/28 09:09:11;;;;;;;7.77;3.77;;;;;;;;;;5065268;28;20566;-74
2022/08/28 09:11:37;;;;;;;6.27;3.60;;;;;;;;;;5080479;28;20191;-72
2022/08/28 09:14:12;;;;;;;5.37;3.47;;;;;;;;;;5066214;28;20319;-72
2022/08/28 09:16:40;;;;;;;4.03;3.20;;;;;;;;;;5066214;28;20641;-73
2022/08/28 09:19:07;;;;;;;5.37;3.37;;;;;;;;;;5066558;28;20189;-74
2022/08/28 09:21:34;;;;;;;7.00;3.70;;;;;;;;;;5065404;28;20208;-72
2022/08/28 09:24:01;;;;;;;8.50;3.77;;;;;;;;;;5060708;28;20516;-73
2022/08/28 09:26:28;;;;;;;4.73;3.10;;;;;;;;;;5065106;28;20193;-73
2022/08/28 09:29:13;;;;;;;5.43;3.93;;;;;;;;;;5066338;28;20268;-73
2022/08/28 09:31:40;;;;;;;5.97;3.37;;;;;;;;;;5062504;28;20183;-73
2022/08/28 09:34:16;;;;;;;7.80;3.50;;;;;;;;;;5065066;28;20209;-73
2022/08/28 09:36:42;;;;;;;7.40;3.93;;;;;;;;;;5062077;28;20319;-72
2022/08/28 09:39:08;;;;;;;5.40;3.77;;;;;;;;;;5064353;28;20189;-72
2022/08/28 09:44:48;;;;;;;5.80;3.43;;;;;;;;;;5035312;28;20357;-74
2022/08/28 09:47:53;;;;;;;5.63;3.60;;;;;;;;;;5066499;28;20523;-73
2022/08/28 09:50:19;;;;;;;4.57;3.30;;;;;;;;;;4992473;28;20249;-74
2022/08/28 09:52:45;;;;;;;8.93;3.97;;;;;;;;;;4987823;28;20190;-73
2022/08/28 09:55:14;;;;;;;4.57;3.60;;;;;;;;;;5012068;28;20204;-73
2022/08/28 09:57:45;;;;;;;5.40;3.90;;;;;;;;;;5064141;28;20185;-73
2022/08/28 10:00:12;;;;;;;7.97;3.80;;;;;;;;;;5068044;28;20192;-73
2022/08/28 10:02:53;;;;;;;5.37;3.70;;;;;;;;;;5049429;28;20261;-73
2022/08/28 10:05:26;;;;;;;6.27;3.83;;;;;;;;;;5063945;28;20202;-73
2022/08/28 10:07:56;;;;;;;6.03;3.70;;;;;;;;;;5057268;28;20176;-73
2022/08/28 10:10:36;;;;;;;6.13;3.90;;;;;;;;;;5062553;28;20210;-72
2022/08/28 10:13:05;;;;;;;5.77;3.77;;;;;;;;;;5067540;28;20219;-74
2022/08/28 10:15:35;;;;;;;6.10;3.57;;;;;;;;;;5066448;28;20208;-75
2022/08/28 10:18:01;;;;;;;5.33;3.27;;;;;;;;;;5069666;28;20272;-73
2022/08/28 10:20:36;;;;;;;5.83;3.90;;;;;;;;;;5052952;28;20198;-77
2022/08/28 10:23:10;;;;;;;4.70;3.80;;;;;;;;;;5054906;28;20224;-76
2022/08/28 10:25:53;;;;;;;4.90;3.87;;;;;;;;;;5069680;28;20172;-75
2022/08/28 10:28:38;;;;;;;5.60;3.80;;;;;;;;;;5063822;28;20165;-73
2022/08/28 10:31:04;;;;;;;6.00;3.70;;;;;;;;;;5061353;28;20285;-74
2022/08/28 10:33:30;;;;;;;7.07;3.70;;;;;;;;;;5066215;28;20623;-74
2022/08/28 10:36:23;;;;;;;4.40;3.50;;;;;;;;;;5059858;28;20284;-75
2022/08/28 10:39:13;;;;;;;4.70;3.30;;;;;;;;;;5063084;28;20221;-75
2022/08/28 10:41:59;;;;;;;4.33;3.27;;;;;;;;;;5033706;28;20274;-75
2022/08/28 10:44:30;;;;;;;5.23;3.30;;;;;;;;;;5066712;28;20232;-75
2022/08/28 10:46:57;;;;;;;5.10;3.30;;;;;;;;;;5065885;28;20272;-75
2022/08/28 10:49:32;;;;;;;7.37;3.70;;;;;;;;;;5059608;28;20185;-75
2022/08/28 10:52:03;;;;;;;5.53;3.20;;;;;;;;;;5064158;28;20181;-75
2022/08/28 10:54:29;;;;;;;6.53;3.23;;;;;;;;;;5066009;28;20207;-75
2022/08/28 10:56:58;;;;;;;3.90;3.33;;;;;;;;;;5065065;28;20634;-75
2022/08/28 10:59:26;;;;;;;6.30;3.10;;;;;;;;;;5068380;28;20181;-76
2022/08/28 11:01:53;;;;;;;6.13;3.70;;;;;;;;;;5066442;28;20514;-75
2022/08/28 11:04:21;;;;;;;5.10;3.50;;;;;;;;;;5068249;28;20190;-75
2022/08/28 11:06:49;;;;;;;3.93;3.50;;;;;;;;;;5078154;28;20691;-75
2022/08/28 11:09:28;;;;;;;5.30;3.30;;;;;;;;;;5060327;28;20185;-75
2022/08/28 11:11:56;;;;;;;6.50;3.20;;;;;;;;;;5066315;28;20176;-75
2022/08/28 11:14:30;;;;;;;4.70;3.50;;;;;;;;;;5060276;28;20207;-75
2022/08/28 11:17:00;;;;;;;5.37;3.50;;;;;;;;;;5081948;28;20195;-75
2022/08/28 11:19:27;;;;;;;5.30;3.40;;;;;;;;;;5065600;28;20272;-75
2022/08/28 11:22:03;;;;;;;4.37;3.33;;;;;;;;;;5063361;28;20719;-75
2022/08/28 11:24:38;;;;;;;6.03;3.57;;;;;;;;;;5064396;28;20198;-75
2022/08/28 11:27:22;;;;;;;7.03;3.40;;;;;;;;;;5066703;28;20247;-75
2022/08/28 11:30:07;;;;;;;5.77;3.20;;;;;;;;;;5065781;28;20189;-75
2022/08/28 11:32:33;;;;;;;5.03;3.40;;;;;;;;;;5056520;28;20238;-74
2022/08/28 11:35:00;;;;;;;4.17;3.10;;;;;;;;;;5074472;28;20236;-75
2022/08/28 11:37:37;;;;;;;4.97;3.40;;;;;;;;;;5058630;28;20188;-76
2022/08/28 11:40:17;;;;;;;4.10;3.40;;;;;;;;;;5060034;28;20246;-77
2022/08/28 11:42:47;;;;;;;4.57;3.10;;;;;;;;;;5058871;28;20220;-77
2022/08/28 11:45:39;;;;;;;5.20;3.07;;;;;;;;;;5061141;28;20186;-77
2022/08/28 11:48:05;;;;;;;5.77;3.30;;;;;;;;;;5041804;28;20281;-75
2022/08/28 11:50:32;;;;;;;6.50;3.00;;;;;;;;;;5063448;28;20699;-77
2022/08/28 11:53:18;;;;;;;5.33;3.23;;;;;;;;;;5061034;28;20188;-77
2022/08/28 11:56:00;;;;;;;4.20;2.97;;;;;;;;;;5063330;28;20266;-77
2022/08/28 11:58:33;;;;;;;4.23;3.03;;;;;;;;;;5060408;28;20189;-75
2022/08/28 12:01:00;;;;;;;5.60;3.30;;;;;;;;;;5062187;28;20184;-75
2022/08/28 12:03:38;;;;;;;5.77;3.20;;;;;;;;;;5060892;28;20227;-75
2022/08/28 12:06:05;;;;;;;4.57;3.00;;;;;;;;;;5061232;28;20186;-75
2022/08/28 12:08:53;;;;;;;3.47;2.90;;;;;;;;;;5065206;28;20649;-75
2022/08/28 12:11:38;;;;;;;5.83;3.30;;;;;;;;;;5062780;28;20190;-75
2022/08/28 12:14:05;;;;;;;6.13;3.10;;;;;;;;;;5061301;28;20264;-75
2022/08/28 12:16:51;;;;;;;4.87;2.97;;;;;;;;;;5065504;28;20375;-75
2022/08/28 12:19:36;;;;;;;3.77;3.30;;;;;;;;;;5060115;28;20185;-76
2022/08/28 12:22:09;;;;;;;6.43;3.10;;;;;;;;;;5066140;28;20215;-76
2022/08/28 12:24:36;;;;;;;7.40;2.87;;;;;;;;;;5061558;28;20750;-75
2022/08/28 12:27:03;;;;;;;3.77;2.77;;;;;;;;;;5062820;28;20187;-77
2022/08/28 12:29:38;;;;;;;4.63;2.90;;;;;;;;;;5065467;28;20178;-77
2022/08/28 12:32:23;;;;;;;6.23;4.10;;;;;;;;;;5062596;28;20269;-77
2022/08/28 12:34:58;;;;;;;4.23;3.10;;;;;;;;;;5058591;28;20297;-76
2022/08/28 12:37:24;;;;;;;3.67;3.03;;;;;;;;;;5061799;28;20180;-75
2022/08/28 12:39:51;;;;;;;3.10;2.80;;;;;;;;;;5046979;28;20524;-78
2022/08/28 12:42:19;;;;;;;5.70;2.87;;;;;;;;;;5062692;28;20215;-74
2022/08/28 12:44:45;;;;;;;5.53;3.13;;;;;;;;;;5058550;28;20295;-76
2022/08/28 12:47:16;;;;;;;4.10;2.87;;;;;;;;;;5059986;28;20719;-77
2022/08/28 12:49:42;;;;;;;3.53;2.90;;;;;;;;;;5056096;28;20268;-74
2022/08/28 12:52:10;;;;;;;4.53;3.50;;;;;;;;;;5056257;28;20182;-75
2022/08/28 12:54:37;;;;;;;4.83;3.10;;;;;;;;;;5056787;28;20214;-75
2022/08/28 12:57:04;;;;;;;3.37;3.00;;;;;;;;;;5060987;28;20201;-77
2022/08/28 12:59:53;;;;;;;4.97;2.90;;;;;;;;;;5057622;28;20190;-75
2022/08/28 13:02:32;;;;;;;3.53;2.87;;;;;;;;;;5064098;28;20246;-74
2022/08/28 13:05:00;;;;;;;4.87;3.10;;;;;;;;;;5053717;28;20251;-75
2022/08/28 13:07:29;;;;;;;4.87;3.10;;;;;;;;;;5056100;28;20177;-74
2022/08/28 13:09:56;;;;;;;3.17;2.83;;;;;;;;;;5057931;28;20183;-74
2022/08/28 13:12:24;;;;;;;3.47;2.80;;;;;;;;;;5065276;28;20261;-74
2022/08/28 13:14:51;;;;;;;4.23;2.80;;;;;;;;;;5057091;28;20204;-75
2022/08/28 13:17:36;;;;;;;4.47;2.67;;;;;;;;;;5059210;28;20184;-76
2022/08/28 13:20:04;;;;;;;5.17;3.33;;;;;;;;;;5053620;28;20248;-75
2022/08/28 13:22:32;;;;;;;3.53;2.87;;;;;;;;;;5060736;28;20903;-73
2022/08/28 13:24:59;;;;;;;4.53;3.00;;;;;;;;;;5067070;28;20199;-72
2022/08/28 13:27:26;;;;;;;4.60;2.87;;;;;;;;;;5058285;28;20195;-72
2022/08/28 13:30:07;;;;;;;5.93;3.07;;;;;;;;;;5062606;28;20190;-73
2022/08/28 13:32:36;;;;;;;3.50;2.97;;;;;;;;;;5066531;28;20187;-73
2022/08/28 13:35:05;;;;;;;4.57;2.57;;;;;;;;;;5060184;28;20269;-73
2022/08/28 13:37:42;;;;;;;3.40;2.60;;;;;;;;;;5061349;28;20690;-73
2022/08/28 13:40:09;;;;;;;4.47;2.40;;;;;;;;;;5061941;28;20189;-72
2022/08/28 13:42:36;;;;;;;3.67;2.50;;;;;;;;;;5058822;28;20300;-73
2022/08/28 13:45:03;;;;;;;4.40;2.90;;;;;;;;;;5061401;28;20210;-73
2022/08/28 13:47:30;;;;;;;3.80;2.40;;;;;;;;;;5061073;28;20180;-73
2022/08/28 13:49:57;;;;;;;4.33;2.70;;;;;;;;;;5059090;28;20653;-73
2022/08/28 13:52:23;;;;;;;3.00;2.40;;;;;;;;;;5066711;28;20690;-73
2022/08/28 13:54:49;;;;;;;3.30;2.40;;;;;;;;;;5063758;28;20213;-73
2022/08/28 13:57:16;;;;;;;3.13;2.47;;;;;;;;;;5062379;28;20522;-73
2022/08/28 13:59:42;;;;;;;3.30;2.50;;;;;;;;;;5064554;28;20187;-72
2022/08/28 14:04:56;;;;;;;3.23;2.70;;;;;;;;;;5064168;28;20726;-73
2022/08/28 14:07:22;;;;;;;4.67;2.43;;;;;;;;;;5060174;28;20221;-73
2022/08/28 14:09:49;;;;;;;3.73;2.60;;;;;;;;;;5068951;28;20249;-73
2022/08/28 14:12:15;;;;;;;3.00;2.50;;;;;;;;;;5062210;28;20207;-73
2022/08/28 14:14:41;;;;;;;2.83;2.50;;;;;;;;;;5082073;28;20684;-73
2022/08/28 14:17:08;;;;;;;3.47;2.40;;;;;;;;;;5066825;28;20188;-73
2022/08/28 14:19:35;;;;;;;5.67;2.77;;;;;;;;;;5062716;28;20620;-73
2022/08/28 14:22:02;;;;;;;3.43;2.80;;;;;;;;;;5064140;28;20202;-72
2022/08/28 14:24:29;;;;;;;3.47;2.90;;;;;;;;;;5069256;28;20231;-73
2022/08/28 14:26:55;;;;;;;2.83;2.60;;;;;;;;;;5066367;28;20265;-73
2022/08/28 14:29:21;;;;;;;3.60;2.83;;;;;;;;;;5062969;28;20183;-73
2022/08/28 14:31:48;;;;;;;4.20;2.70;;;;;;;;;;5065491;28;20252;-73
2022/08/28 14:34:16;;;;;;;4.27;2.80;;;;;;;;;;5065261;28;20208;-73
2022/08/28 14:36:43;;;;;;;3.87;2.63;;;;;;;;;;5064917;28;20181;-73
2022/08/28 14:39:11;;;;;;;4.73;2.97;;;;;;;;;;5068455;28;20205;-73
2022/08/28 14:41:37;;;;;;;3.77;2.60;;;;;;;;;;5073960;28;20206;-72
2022/08/28 14:44:03;;;;;;;3.33;2.80;;;;;;;;;;5062753;28;20236;-72
2022/08/28 14:46:31;;;;;;;4.93;3.10;;;;;;;;;;5066091;28;20360;-73
2022/08/28 14:48:58;;;;;;;4.20;2.80;;;;;;;;;;5068525;28;20193;-72
2022/08/28 14:51:24;;;;;;;3.30;2.80;;;;;;;;;;5064341;28;20179;-72
2022/08/28 14:53:51;;;;;;;3.47;2.80;;;;;;;;;;5058717;28;20199;-72
2022/08/28 14:56:18;;;;;;;3.37;2.60;;;;;;;;;;5065070;28;20668;-72
2022/08/28 14:58:44;;;;;;;4.37;3.30;;;;;;;;;;5065027;28;20263;-72
2022/08/28 15:01:10;;;;;;;4.00;3.00;;;;;;;;;;5063157;28;20212;-72
2022/08/28 15:03:36;;;;;;;4.47;2.87;;;;;;;;;;5064406;28;20214;-72